Time;durP1;ratioP1;P1;durP2;ratioP2;P2;SDS_P1;SDS_P2;PMS_P1;PMS_P2;Temp;Humidity;BMP_temperature;BMP_pressure;BME280_temperature;BME280_humidity;BME280_pressure;Samples;Min_cycle;Max_cycle;Signal;HPM_P1;HPM_P2
2023/06/21 00:00:12;;;;;;;6.43;4.40;;;22.30;99.90;;;;;;5013349;28;20022;-38
2023/06/21 00:02:39;;;;;;;6.50;4.03;;;22.30;99.90;;;;;;5013487;28;20404;-37
2023/06/21 00:05:07;;;;;;;9.05;4.03;;;22.30;99.90;;;;;;5013126;28;20489;-37
2023/06/21 00:07:32;;;;;;;6.25;4.05;;;22.30;99.90;;;;;;5013216;28;20034;-39
2023/06/21 00:09:58;;;;;;;6.80;4.78;;;22.30;99.90;;;;;;5012944;28;20080;-37
2023/06/21 00:12:26;;;;;;;5.32;3.92;;;22.30;99.90;;;;;;5013070;28;20433;-39
2023/06/21 00:14:52;;;;;;;5.30;3.92;;;22.30;99.90;;;;;;5012780;28;20026;-38
2023/06/21 00:17:17;;;;;;;7.00;4.25;;;22.30;99.90;;;;;;5013394;28;20720;-38
2023/06/21 00:19:43;;;;;;;5.68;3.88;;;22.30;99.90;;;;;;5013198;28;20022;-39
2023/06/21 00:22:09;;;;;;;7.07;4.22;;;22.30;99.90;;;;;;5012978;28;20488;-39
2023/06/21 00:24:35;;;;;;;8.88;3.80;;;22.20;99.90;;;;;;5012808;28;20088;-39
2023/06/21 00:27:01;;;;;;;6.15;3.78;;;22.30;99.90;;;;;;5012658;28;20489;-41
2023/06/21 00:29:27;;;;;;;5.72;4.10;;;22.20;99.90;;;;;;5012789;28;20036;-39
2023/06/21 00:31:52;;;;;;;7.38;4.47;;;22.20;99.90;;;;;;5013074;28;20062;-38
2023/06/21 00:34:18;;;;;;;5.07;4.20;;;22.20;99.90;;;;;;5012883;28;20026;-41
2023/06/21 00:36:44;;;;;;;5.28;4.40;;;22.20;99.90;;;;;;5012557;28;20033;-39
2023/06/21 00:39:10;;;;;;;7.43;4.95;;;22.20;99.90;;;;;;5011660;28;20018;-38
2023/06/21 00:41:36;;;;;;;4.55;4.10;;;22.20;99.90;;;;;;5012825;28;20072;-36
2023/06/21 00:44:02;;;;;;;7.28;4.57;;;22.20;99.90;;;;;;5012518;28;20034;-39
2023/06/21 00:46:29;;;;;;;6.53;4.05;;;22.20;99.90;;;;;;5012342;28;20041;-36
2023/06/21 00:48:57;;;;;;;5.45;4.10;;;22.20;99.90;;;;;;5012396;28;20401;-39
2023/06/21 00:51:23;;;;;;;5.63;4.20;;;22.20;99.90;;;;;;5012821;28;20017;-38
2023/06/21 00:53:49;;;;;;;5.40;3.70;;;22.20;99.90;;;;;;5012304;28;20284;-39
2023/06/21 00:56:16;;;;;;;6.45;4.40;;;22.20;99.90;;;;;;5012113;28;20251;-40
2023/06/21 00:58:43;;;;;;;6.03;4.45;;;22.20;99.90;;;;;;5012269;28;20552;-36
2023/06/21 01:01:08;;;;;;;5.25;3.80;;;22.20;99.90;;;;;;5012315;28;20477;-39
2023/06/21 01:03:36;;;;;;;5.70;4.20;;;22.20;99.90;;;;;;5027225;28;20065;-39
2023/06/21 01:06:21;;;;;;;5.45;4.32;;;22.20;99.90;;;;;;5011967;28;20115;-38
2023/06/21 01:09:02;;;;;;;5.35;4.28;;;22.20;99.90;;;;;;5011985;28;20033;-38
2023/06/21 01:11:38;;;;;;;5.40;4.40;;;22.20;99.90;;;;;;5012018;28;20084;-39
2023/06/21 01:14:36;;;;;;;5.88;4.28;;;22.20;99.90;;;;;;5011993;28;20045;-39
2023/06/21 01:17:03;;;;;;;9.13;4.78;;;22.20;99.90;;;;;;5006767;28;20038;-39
2023/06/21 01:20:14;;;;;;;5.15;4.10;;;22.20;99.90;;;;;;5012169;28;20024;-39
2023/06/21 01:22:51;;;;;;;7.95;4.82;;;22.20;99.90;;;;;;5011593;28;20404;-40
2023/06/21 01:25:41;;;;;;;8.20;4.82;;;22.20;99.90;;;;;;5011700;28;20022;-39
2023/06/21 01:28:33;;;;;;;5.22;4.15;;;22.20;99.90;;;;;;5011768;28;20521;-40
2023/06/21 01:31:01;;;;;;;4.72;4.22;;;22.20;99.90;;;;;;5011799;28;20026;-36
2023/06/21 01:33:28;;;;;;;6.03;4.40;;;22.20;99.90;;;;;;5011596;28;20026;-39
2023/06/21 01:35:54;;;;;;;7.20;4.60;;;22.20;99.90;;;;;;5011541;28;20507;-36
2023/06/21 01:38:20;;;;;;;5.05;4.00;;;22.20;99.90;;;;;;5011787;28;20022;-37
2023/06/21 01:40:46;;;;;;;7.25;4.93;;;22.10;99.90;;;;;;5011620;28;20022;-38
2023/06/21 01:43:13;;;;;;;7.93;4.35;;;22.10;99.90;;;;;;5011644;28;20157;-40
2023/06/21 01:45:40;;;;;;;6.50;4.20;;;22.10;99.90;;;;;;5011379;28;20101;-39
2023/06/21 01:48:06;;;;;;;5.38;4.07;;;22.10;99.90;;;;;;5011357;28;20026;-39
2023/06/21 01:50:34;;;;;;;6.95;4.45;;;22.10;99.90;;;;;;5011424;28;20021;-39
2023/06/21 01:53:01;;;;;;;5.18;4.50;;;22.10;99.90;;;;;;5011545;28;20021;-40
2023/06/21 01:55:28;;;;;;;5.43;4.25;;;22.10;99.90;;;;;;5011182;28;20041;-38
2023/06/21 01:57:56;;;;;;;6.68;4.47;;;22.10;99.90;;;;;;5011527;28;20547;-38
2023/06/21 02:00:22;;;;;;;5.75;4.43;;;22.10;99.90;;;;;;5011445;28;20104;-37
2023/06/21 02:02:55;;;;;;;6.07;4.20;;;22.10;99.90;;;;;;5011483;28;20504;-38
2023/06/21 02:05:21;;;;;;;5.55;4.47;;;22.10;99.90;;;;;;5011271;28;20504;-39
2023/06/21 02:07:48;;;;;;;6.60;4.13;;;22.10;99.90;;;;;;5011339;28;20100;-36
2023/06/21 02:10:15;;;;;;;6.20;4.53;;;22.10;99.90;;;;;;5011901;28;20026;-37
2023/06/21 02:12:42;;;;;;;7.00;4.63;;;22.10;99.90;;;;;;5011681;28;20041;-39
2023/06/21 02:15:11;;;;;;;9.75;4.50;;;22.10;99.90;;;;;;5010856;28;20030;-37
2023/06/21 02:17:36;;;;;;;8.05;4.75;;;22.10;99.90;;;;;;5011336;28;20022;-39
2023/06/21 02:20:08;;;;;;;5.63;4.70;;;22.10;99.90;;;;;;5011256;28;20053;-39
2023/06/21 02:22:34;;;;;;;6.60;4.32;;;22.00;99.90;;;;;;5011409;28;20028;-39
2023/06/21 02:24:59;;;;;;;6.40;4.80;;;22.10;99.90;;;;;;5011101;28;20026;-36
2023/06/21 02:27:25;;;;;;;6.38;4.40;;;22.10;99.90;;;;;;5011421;28;20033;-38
2023/06/21 02:29:50;;;;;;;7.38;4.70;;;22.00;99.90;;;;;;5011155;28;20041;-40
2023/06/21 02:32:16;;;;;;;5.72;4.07;;;22.00;99.90;;;;;;5026301;28;20061;-36
2023/06/21 02:34:42;;;;;;;7.15;4.45;;;22.00;99.90;;;;;;5011029;28;20046;-36
2023/06/21 02:37:11;;;;;;;6.35;4.20;;;22.00;99.90;;;;;;5011096;28;20381;-40
2023/06/21 02:39:38;;;;;;;6.80;3.92;;;22.00;99.90;;;;;;5010989;28;20018;-39
2023/06/21 02:42:04;;;;;;;6.40;4.10;;;22.00;99.90;;;;;;5011086;28;20200;-36
2023/06/21 02:44:29;;;;;;;6.95;4.30;;;22.00;99.90;;;;;;5011213;28;20775;-38
2023/06/21 02:46:56;;;;;;;5.57;4.10;;;22.00;99.90;;;;;;5010864;28;20038;-39
2023/06/21 02:49:22;;;;;;;7.43;4.28;;;22.00;99.90;;;;;;5011221;28;20066;-39
2023/06/21 02:51:51;;;;;;;5.72;4.70;;;22.00;99.90;;;;;;5010959;28;20481;-36
2023/06/21 02:54:17;;;;;;;5.93;4.47;;;22.00;99.90;;;;;;5010903;28;20040;-41
2023/06/21 02:56:43;;;;;;;7.32;5.15;;;22.00;99.90;;;;;;5010857;28;20384;-39
2023/06/21 02:59:09;;;;;;;7.43;4.47;;;22.00;99.90;;;;;;5011044;28;20100;-39
2023/06/21 03:01:35;;;;;;;6.15;4.38;;;22.00;99.90;;;;;;5012374;28;20025;-39
2023/06/21 03:04:00;;;;;;;7.13;4.30;;;22.00;99.90;;;;;;5014479;28;20113;-40
2023/06/21 03:06:29;;;;;;;9.40;5.03;;;22.00;99.90;;;;;;5014272;28;20037;-39
2023/06/21 03:08:57;;;;;;;6.07;4.28;;;22.00;99.90;;;;;;5014138;28;20133;-39
2023/06/21 03:11:23;;;;;;;6.22;4.70;;;22.00;99.90;;;;;;5014174;28;20033;-39
2023/06/21 03:13:49;;;;;;;10.90;4.80;;;22.00;99.90;;;;;;5014250;28;20026;-36
2023/06/21 03:16:16;;;;;;;5.95;4.32;;;22.00;99.90;;;;;;5014226;28;20298;-36
2023/06/21 03:18:41;;;;;;;8.68;4.53;;;22.00;99.90;;;;;;5014124;28;20040;-40
2023/06/21 03:21:08;;;;;;;6.72;4.53;;;22.00;99.90;;;;;;5014194;28;20113;-41
2023/06/21 03:23:35;;;;;;;5.80;4.30;;;21.90;99.90;;;;;;5014302;28;20017;-41
2023/06/21 03:26:01;;;;;;;6.50;4.57;;;21.90;99.90;;;;;;5013736;28;20038;-39
2023/06/21 03:28:27;;;;;;;8.02;4.80;;;22.00;99.90;;;;;;5013964;28;20021;-37
2023/06/21 03:30:53;;;;;;;7.18;4.25;;;22.00;99.90;;;;;;5014021;28;20045;-37
2023/06/21 03:33:18;;;;;;;6.13;4.55;;;21.90;99.90;;;;;;5013827;28;20034;-37
2023/06/21 03:35:44;;;;;;;6.97;4.40;;;22.00;99.90;;;;;;5013996;28;20365;-39
2023/06/21 03:38:10;;;;;;;5.72;4.18;;;22.00;99.90;;;;;;5013729;28;20416;-41
2023/06/21 03:40:35;;;;;;;9.43;5.53;;;22.00;99.90;;;;;;5013618;28;20516;-39
2023/06/21 03:43:01;;;;;;;9.55;5.05;;;21.90;99.90;;;;;;5028932;28;20025;-37
2023/06/21 03:45:27;;;;;;;10.50;5.13;;;21.90;99.90;;;;;;5013607;28;20037;-38
2023/06/21 03:47:52;;;;;;;8.10;5.15;;;21.90;99.90;;;;;;5013661;28;20041;-39
2023/06/21 03:50:18;;;;;;;6.72;4.72;;;21.90;99.90;;;;;;5013496;28;20030;-41
2023/06/21 03:52:43;;;;;;;6.65;4.50;;;21.90;99.90;;;;;;5013461;28;20065;-40
2023/06/21 03:55:09;;;;;;;9.13;4.60;;;21.90;99.90;;;;;;5012997;28;20069;-41
2023/06/21 03:57:35;;;;;;;8.43;4.60;;;21.90;99.90;;;;;;5013427;28;20481;-40
2023/06/21 04:00:04;;;;;;;4.97;4.47;;;21.90;99.90;;;;;;5013293;28;20485;-38
2023/06/21 04:02:29;;;;;;;7.03;4.45;;;21.90;99.90;;;;;;5013275;28;20393;-36
2023/06/21 04:04:55;;;;;;;5.95;4.55;;;21.90;99.90;;;;;;5013082;28;20025;-40
2023/06/21 04:07:23;;;;;;;8.57;4.60;;;21.90;99.90;;;;;;5013611;28;20029;-39
2023/06/21 04:09:49;;;;;;;8.77;4.78;;;21.90;99.90;;;;;;5013055;28;20033;-38
2023/06/21 04:12:15;;;;;;;7.30;4.40;;;21.90;99.90;;;;;;5013161;28;20064;-38
2023/06/21 04:14:40;;;;;;;5.03;4.55;;;21.90;99.90;;;;;;5013645;28;20061;-38
2023/06/21 04:17:06;;;;;;;6.55;4.32;;;21.90;99.90;;;;;;5012947;28;20025;-39
2023/06/21 04:19:32;;;;;;;5.97;4.70;;;21.90;99.90;;;;;;5012995;28;20032;-39
2023/06/21 04:21:58;;;;;;;5.88;4.57;;;21.90;99.90;;;;;;5012904;28;20097;-39
2023/06/21 04:24:23;;;;;;;7.45;4.60;;;21.90;99.90;;;;;;5012857;28;20436;-37
2023/06/21 04:26:49;;;;;;;6.13;4.30;;;21.90;99.90;;;;;;5012707;28;20022;-37
2023/06/21 04:29:18;;;;;;;6.57;4.43;;;21.90;99.90;;;;;;5012817;28;20033;-37
2023/06/21 04:31:44;;;;;;;6.03;4.45;;;21.90;99.90;;;;;;5012756;28;20026;-39
2023/06/21 04:34:09;;;;;;;4.93;4.38;;;21.90;99.90;;;;;;5012760;28;20401;-41
2023/06/21 04:36:35;;;;;;;6.40;4.50;;;21.90;99.90;;;;;;5012445;28;20049;-40
2023/06/21 04:39:02;;;;;;;7.30;4.68;;;21.80;99.90;;;;;;5012508;28;20153;-39
2023/06/21 04:41:28;;;;;;;7.85;4.72;;;21.90;99.90;;;;;;5012822;28;20061;-36
2023/06/21 04:43:53;;;;;;;5.72;4.30;;;21.90;99.90;;;;;;5012568;28;20555;-37
2023/06/21 04:46:21;;;;;;;11.27;4.70;;;21.80;99.90;;;;;;5012689;28;20030;-37
2023/06/21 04:48:47;;;;;;;8.38;4.72;;;21.90;99.90;;;;;;5012466;28;20100;-38
2023/06/21 04:51:15;;;;;;;7.82;5.28;;;21.80;99.90;;;;;;5012333;28;20030;-39
2023/06/21 04:53:50;;;;;;;7.35;4.85;;;21.80;99.90;;;;;;5012229;28;20041;-36
2023/06/21 04:56:16;;;;;;;8.48;5.20;;;21.80;99.90;;;;;;5012217;28;20484;-38
2023/06/21 04:58:41;;;;;;;5.43;4.40;;;21.80;99.90;;;;;;5012219;28;20025;-37
2023/06/21 05:01:07;;;;;;;6.47;4.60;;;21.80;99.90;;;;;;5012317;28;20072;-35
2023/06/21 05:03:33;;;;;;;7.35;4.82;;;21.80;99.90;;;;;;5011301;28;20076;-39
2023/06/21 05:05:59;;;;;;;6.63;5.07;;;21.80;99.90;;;;;;5011871;28;20556;-39
2023/06/21 05:08:25;;;;;;;8.27;4.93;;;21.80;99.90;;;;;;5012051;28;20512;-39
2023/06/21 05:10:51;;;;;;;6.82;4.72;;;21.80;99.90;;;;;;5012204;28;20022;-39
2023/06/21 05:13:17;;;;;;;6.88;4.90;;;21.80;99.90;;;;;;5012392;28;20507;-38
2023/06/21 05:15:43;;;;;;;6.75;4.70;;;21.80;99.90;;;;;;5011859;28;20045;-38
2023/06/21 05:18:08;;;;;;;7.60;4.70;;;21.80;99.90;;;;;;5011965;28;20029;-41
2023/06/21 05:20:34;;;;;;;7.25;5.28;;;21.80;99.90;;;;;;5011799;28;20022;-39
2023/06/21 05:23:00;;;;;;;6.50;4.85;;;21.80;99.90;;;;;;5012503;28;20030;-38
2023/06/21 05:25:25;;;;;;;6.55;4.72;;;21.80;99.90;;;;;;5012026;28;20030;-36
2023/06/21 05:27:51;;;;;;;6.18;4.47;;;21.80;99.90;;;;;;5012030;28;20025;-38
2023/06/21 05:30:18;;;;;;;5.47;4.55;;;21.80;99.90;;;;;;5011816;28;20037;-38
2023/06/21 05:32:44;;;;;;;5.35;4.43;;;21.80;99.90;;;;;;5011879;28;20022;-36
2023/06/21 05:35:09;;;;;;;6.55;4.68;;;21.80;99.90;;;;;;5011295;28;20431;-39
2023/06/21 05:37:36;;;;;;;6.88;5.38;;;21.80;99.90;;;;;;5011671;28;20034;-39
2023/06/21 05:40:03;;;;;;;8.85;4.82;;;21.80;99.90;;;;;;5011574;28;20024;-38
2023/06/21 05:42:29;;;;;;;5.75;4.72;;;21.80;99.90;;;;;;5011632;28;20076;-39
2023/06/21 05:44:55;;;;;;;8.35;4.70;;;21.80;99.90;;;;;;5011426;28;20117;-38
2023/06/21 05:47:20;;;;;;;5.82;4.47;;;21.80;99.90;;;;;;5011611;28;20205;-37
2023/06/21 05:49:48;;;;;;;5.72;4.30;;;21.80;99.90;;;;;;5011393;28;20052;-38
2023/06/21 05:52:14;;;;;;;6.18;4.55;;;21.80;99.90;;;;;;5011771;28;20456;-39
2023/06/21 05:54:42;;;;;;;9.15;4.65;;;21.80;99.90;;;;;;5011802;28;20413;-37
2023/06/21 05:57:08;;;;;;;6.13;4.45;;;21.80;99.90;;;;;;5011599;28;20477;-36
2023/06/21 05:59:33;;;;;;;5.60;4.28;;;21.80;99.90;;;;;;5011420;28;20046;-37
2023/06/21 06:01:59;;;;;;;8.30;4.57;;;21.80;99.90;;;;;;5011531;28;20062;-42
2023/06/21 06:04:24;;;;;;;9.15;4.65;;;21.80;99.90;;;;;;5011719;28;20028;-39
2023/06/21 06:06:50;;;;;;;14.43;5.40;;;21.80;99.90;;;;;;5011419;28;20091;-37
2023/06/21 06:09:15;;;;;;;10.93;5.88;;;21.80;99.90;;;;;;5011216;28;20547;-41
2023/06/21 06:11:41;;;;;;;17.08;5.63;;;21.70;99.90;;;;;;5011681;28;20033;-37
2023/06/21 06:14:10;;;;;;;13.73;5.40;;;21.80;99.90;;;;;;5011993;28;20073;-39
2023/06/21 06:16:36;;;;;;;11.02;6.18;;;21.80;99.90;;;;;;5011074;28;20022;-37
2023/06/21 06:19:02;;;;;;;13.45;5.97;;;21.80;99.90;;;;;;5011137;28;20516;-38
2023/06/21 06:21:28;;;;;;;14.52;5.88;;;21.80;99.90;;;;;;5011265;28;20129;-39
2023/06/21 06:23:54;;;;;;;9.95;5.70;;;21.80;99.90;;;;;;5011672;28;20037;-38
2023/06/21 06:26:24;;;;;;;12.50;6.05;;;21.80;99.90;;;;;;5011067;28;20036;-38
2023/06/21 06:28:50;;;;;;;9.85;5.60;;;21.80;99.90;;;;;;5011131;28;20042;-39
2023/06/21 06:31:28;;;;;;;5.85;5.22;;;21.80;99.90;;;;;;5011099;28;20040;-37
2023/06/21 06:33:54;;;;;;;10.98;5.50;;;21.80;99.90;;;;;;5011012;28;20083;-36
2023/06/21 06:36:20;;;;;;;11.45;5.35;;;21.80;99.90;;;;;;5012088;28;20026;-41
2023/06/21 06:38:47;;;;;;;10.00;5.55;;;21.90;99.90;;;;;;5014185;28;20026;-38
2023/06/21 06:41:13;;;;;;;10.50;5.03;;;21.80;99.90;;;;;;5014885;28;20061;-39
2023/06/21 06:43:39;;;;;;;8.45;5.13;;;21.90;99.90;;;;;;5014739;28;20049;-39
2023/06/21 06:46:04;;;;;;;7.40;4.60;;;21.90;99.90;;;;;;5014520;28;20584;-39
2023/06/21 06:48:30;;;;;;;6.47;4.78;;;21.90;99.90;;;;;;5014623;28;20029;-36
2023/06/21 06:50:56;;;;;;;9.48;5.22;;;21.90;99.90;;;;;;5014753;28;20056;-39
2023/06/21 06:53:22;;;;;;;8.55;5.35;;;21.90;99.90;;;;;;5014615;28;20116;-37
2023/06/21 06:55:49;;;;;;;8.77;5.45;;;21.90;99.90;;;;;;5014447;28;20097;-39
2023/06/21 06:58:15;;;;;;;7.38;4.82;;;21.90;99.90;;;;;;5014560;28;20041;-39
2023/06/21 07:00:41;;;;;;;5.85;4.80;;;21.90;99.90;;;;;;5014477;28;20026;-37
2023/06/21 07:03:06;;;;;;;8.43;4.80;;;21.90;99.90;;;;;;5014460;28;20539;-39
2023/06/21 07:05:35;;;;;;;7.57;5.15;;;21.90;99.90;;;;;;5014488;28;20088;-40
2023/06/21 07:08:01;;;;;;;8.27;5.05;;;21.90;99.90;;;;;;5014350;28;20024;-39
2023/06/21 07:10:27;;;;;;;6.82;4.80;;;21.90;99.90;;;;;;5014483;28;20026;-39
2023/06/21 07:12:53;;;;;;;6.30;4.60;;;21.90;99.90;;;;;;5014224;28;20030;-40
2023/06/21 07:15:19;;;;;;;8.07;5.22;;;22.00;99.90;;;;;;5029084;28;20045;-38
2023/06/21 07:17:44;;;;;;;5.95;4.50;;;22.00;99.90;;;;;;5014127;28;20385;-36
2023/06/21 07:20:10;;;;;;;7.10;4.50;;;22.00;99.90;;;;;;5014377;28;20026;-40
2023/06/21 07:22:36;;;;;;;6.80;4.78;;;21.90;99.90;;;;;;5014149;28;20022;-39
2023/06/21 07:25:02;;;;;;;8.75;4.78;;;22.00;99.90;;;;;;5013846;28;20022;-38
2023/06/21 07:27:28;;;;;;;8.98;4.80;;;22.00;99.90;;;;;;5013953;28;20025;-39
2023/06/21 07:29:54;;;;;;;6.53;4.40;;;22.00;99.90;;;;;;5013887;28;20033;-39
2023/06/21 07:32:19;;;;;;;5.18;4.28;;;22.00;99.90;;;;;;5013899;28;20123;-38
2023/06/21 07:34:45;;;;;;;6.70;4.93;;;22.00;99.90;;;;;;5013718;28;20037;-39
2023/06/21 07:37:11;;;;;;;6.72;4.38;;;22.00;99.90;;;;;;5014021;28;20109;-36
2023/06/21 07:39:37;;;;;;;7.25;4.72;;;21.90;99.90;;;;;;5013945;28;20034;-38
2023/06/21 07:42:04;;;;;;;9.50;4.63;;;22.00;99.90;;;;;;5013857;28;20037;-36
2023/06/21 07:44:31;;;;;;;9.57;4.30;;;22.00;99.90;;;;;;5013823;28;20036;-40
2023/06/21 07:46:56;;;;;;;6.78;4.22;;;22.00;99.90;;;;;;5013161;28;20033;-40
2023/06/21 07:49:22;;;;;;;6.50;4.30;;;22.00;99.90;;;;;;5013578;28;20026;-39
2023/06/21 07:51:48;;;;;;;6.40;4.32;;;22.00;99.90;;;;;;5013711;28;20401;-38
2023/06/21 07:54:13;;;;;;;5.30;4.28;;;22.00;99.90;;;;;;5013568;28;20049;-39
2023/06/21 07:56:39;;;;;;;5.82;4.18;;;22.00;99.90;;;;;;5013099;28;20100;-39
2023/06/21 07:59:05;;;;;;;6.10;4.10;;;22.00;99.90;;;;;;5013550;28;20026;-39
2023/06/21 08:01:31;;;;;;;5.20;3.90;;;22.00;99.90;;;;;;5013420;28;20018;-39
2023/06/21 08:03:59;;;;;;;6.32;4.35;;;22.00;99.90;;;;;;5013356;28;20401;-39
2023/06/21 08:06:25;;;;;;;4.95;4.10;;;22.00;99.90;;;;;;5013110;28;20034;-38
2023/06/21 08:08:51;;;;;;;7.15;4.25;;;22.00;99.90;;;;;;5013568;28;20034;-39
2023/06/21 08:11:17;;;;;;;4.72;3.97;;;22.00;99.90;;;;;;5013051;28;20033;-39
2023/06/21 08:13:42;;;;;;;6.13;4.43;;;22.00;99.90;;;;;;5013127;28;20453;-38
2023/06/21 08:16:08;;;;;;;6.57;4.60;;;22.00;99.90;;;;;;5012991;28;20511;-39
2023/06/21 08:18:34;;;;;;;6.28;3.75;;;22.00;99.90;;;;;;5012973;28;20116;-39
2023/06/21 08:21:00;;;;;;;8.43;4.00;;;22.00;99.90;;;;;;5012994;28;20104;-44
2023/06/21 08:23:25;;;;;;;5.55;3.70;;;22.00;99.90;;;;;;5012948;28;20126;-40
2023/06/21 08:25:51;;;;;;;7.53;3.83;;;22.00;99.90;;;;;;5012614;28;20058;-39
2023/06/21 08:28:17;;;;;;;6.25;3.75;;;22.00;99.90;;;;;;5012848;28;20030;-37
2023/06/21 08:30:42;;;;;;;6.53;3.80;;;22.00;99.90;;;;;;5012943;28;20040;-36
2023/06/21 08:33:09;;;;;;;6.38;3.83;;;22.00;99.90;;;;;;5012804;28;20021;-40
2023/06/21 08:35:36;;;;;;;8.07;4.35;;;22.00;99.90;;;;;;5012391;28;20033;-39
2023/06/21 08:38:02;;;;;;;8.93;4.18;;;22.00;99.90;;;;;;5012961;28;20077;-40
2023/06/21 08:40:32;;;;;;;7.03;4.32;;;22.00;99.90;;;;;;5012953;28;20101;-37
2023/06/21 08:42:58;;;;;;;9.90;4.22;;;22.00;99.90;;;;;;5012870;28;20034;-41
2023/06/21 08:45:23;;;;;;;7.07;4.10;;;22.00;99.90;;;;;;5012278;28;20504;-41
2023/06/21 08:47:53;;;;;;;10.05;4.38;;;22.00;99.90;;;;;;5012721;28;20038;-38
2023/06/21 08:50:20;;;;;;;6.70;4.03;;;22.00;99.90;;;;;;5012487;28;20022;-39
2023/06/21 08:52:48;;;;;;;8.02;4.20;;;22.00;99.90;;;;;;5012589;28;20026;-38
2023/06/21 08:55:15;;;;;;;7.40;4.35;;;22.00;99.90;;;;;;5012370;28;20026;-43
2023/06/21 08:58:12;;;;;;;7.85;4.10;;;22.00;99.90;;;;;;5012379;28;20018;-39
2023/06/21 09:00:45;;;;;;;6.05;4.15;;;22.00;99.90;;;;;;5011983;28;20018;-36
2023/06/21 09:03:10;;;;;;;6.05;3.83;;;22.00;99.90;;;;;;5012460;28;20022;-37
2023/06/21 09:05:45;;;;;;;6.50;3.95;;;22.00;99.90;;;;;;5011973;28;20029;-39
2023/06/21 09:08:14;;;;;;;5.47;3.80;;;22.00;99.90;;;;;;5012268;28;20037;-39
2023/06/21 09:10:42;;;;;;;6.35;4.22;;;22.00;99.90;;;;;;5012232;28;20030;-38
2023/06/21 09:13:08;;;;;;;4.22;3.80;;;22.00;99.90;;;;;;5012271;28;20025;-40
2023/06/21 09:15:35;;;;;;;5.13;4.22;;;22.00;99.90;;;;;;5011730;28;20026;-38
2023/06/21 09:18:01;;;;;;;5.05;3.67;;;22.00;99.90;;;;;;5011993;28;20021;-40
2023/06/21 09:20:28;;;;;;;6.80;3.38;;;22.00;99.90;;;;;;5012262;28;20014;-38
2023/06/21 09:22:58;;;;;;;7.43;3.70;;;22.00;99.90;;;;;;5012011;28;20105;-40
2023/06/21 09:25:25;;;;;;;5.60;3.50;;;22.00;99.90;;;;;;5012044;28;20030;-40
2023/06/21 09:27:54;;;;;;;6.78;3.75;;;22.00;99.90;;;;;;5012418;28;20034;-38
2023/06/21 09:30:21;;;;;;;7.57;4.30;;;22.00;99.90;;;;;;5012090;28;20497;-38
2023/06/21 09:32:47;;;;;;;5.57;3.78;;;21.90;99.90;;;;;;5011761;28;20030;-39
2023/06/21 09:35:15;;;;;;;5.88;3.53;;;22.00;99.90;;;;;;5011676;28;20036;-40
2023/06/21 09:37:41;;;;;;;6.88;3.53;;;21.90;99.90;;;;;;5011706;28;20033;-39
2023/06/21 09:40:08;;;;;;;7.63;3.90;;;22.00;99.90;;;;;;5011601;28;20026;-38
2023/06/21 09:42:39;;;;;;;7.65;3.88;;;22.00;99.90;;;;;;5010322;28;20027;-36
2023/06/21 09:45:31;;;;;;;4.82;3.40;;;22.00;99.90;;;;;;5011484;28;20497;-39
2023/06/21 09:47:57;;;;;;;6.22;4.38;;;21.90;99.90;;;;;;5010405;28;20037;-38
2023/06/21 09:50:23;;;;;;;6.18;3.58;;;22.00;99.90;;;;;;5011658;28;20076;-40
2023/06/21 09:52:48;;;;;;;8.13;4.18;;;21.90;99.90;;;;;;5011703;28;20036;-39
2023/06/21 09:55:15;;;;;;;12.32;3.92;;;21.90;99.90;;;;;;5011288;28;20072;-38
2023/06/21 09:57:41;;;;;;;3.95;3.33;;;21.90;99.90;;;;;;5010153;28;20034;-40
2023/06/21 10:00:10;;;;;;;6.75;4.18;;;21.90;99.90;;;;;;5011621;28;20370;-38
2023/06/21 10:02:40;;;;;;;4.75;3.55;;;21.90;99.90;;;;;;5011588;28;20349;-41
2023/06/21 10:05:15;;;;;;;4.97;3.40;;;21.90;99.90;;;;;;5011278;28;20033;-37
2023/06/21 10:07:45;;;;;;;4.82;3.92;;;21.90;99.90;;;;;;5011506;28;20038;-38
2023/06/21 10:10:11;;;;;;;6.60;3.95;;;21.90;99.90;;;;;;5012245;28;20048;-39
2023/06/21 10:12:37;;;;;;;7.90;3.70;;;21.90;99.90;;;;;;5015407;28;20084;-39
2023/06/21 10:15:04;;;;;;;5.25;3.50;;;21.90;99.90;;;;;;5015328;28;20026;-39
2023/06/21 10:17:31;;;;;;;5.13;3.28;;;21.90;99.90;;;;;;5015565;28;20160;-36
2023/06/21 10:19:59;;;;;;;6.60;3.83;;;21.90;99.90;;;;;;5015187;28;20105;-39
2023/06/21 10:22:27;;;;;;;5.32;3.88;;;21.90;99.90;;;;;;5015495;28;20029;-39
2023/06/21 10:24:54;;;;;;;5.47;3.80;;;21.90;99.90;;;;;;5015062;28;20026;-40
2023/06/21 10:27:20;;;;;;;5.15;3.47;;;21.90;99.90;;;;;;5015036;28;20493;-37
2023/06/21 10:29:56;;;;;;;7.00;3.88;;;21.90;99.90;;;;;;5015057;28;20029;-37
2023/06/21 10:32:23;;;;;;;4.93;3.28;;;21.90;99.90;;;;;;5015279;28;20026;-39
2023/06/21 10:35:08;;;;;;;6.60;3.90;;;21.90;99.90;;;;;;5015061;28;20037;-38
2023/06/21 10:37:50;;;;;;;6.28;4.10;;;21.90;99.90;;;;;;5013695;28;20034;-39
2023/06/21 10:40:18;;;;;;;8.60;4.03;;;21.80;99.90;;;;;;5014965;28;20028;-38
2023/06/21 10:42:45;;;;;;;7.20;3.88;;;21.90;99.90;;;;;;5015192;28;20469;-38
2023/06/21 10:45:11;;;;;;;6.88;4.20;;;21.80;99.90;;;;;;5014637;28;20026;-38
2023/06/21 10:47:38;;;;;;;6.30;3.83;;;21.90;99.90;;;;;;5014677;28;20116;-39
2023/06/21 10:50:06;;;;;;;4.93;3.50;;;21.90;99.90;;;;;;5015069;28;20551;-41
2023/06/21 10:52:32;;;;;;;5.65;3.40;;;21.90;99.90;;;;;;5014702;28;20076;-40
2023/06/21 10:54:59;;;;;;;7.03;4.05;;;21.80;99.90;;;;;;5014346;28;20117;-39
2023/06/21 10:57:26;;;;;;;5.72;3.70;;;21.90;99.90;;;;;;5014641;28;20048;-41
2023/06/21 10:59:55;;;;;;;7.47;4.03;;;21.80;99.90;;;;;;5014496;28;20032;-39
2023/06/21 11:02:24;;;;;;;5.20;3.75;;;21.90;99.90;;;;;;5014958;28;20049;-39
2023/06/21 11:05:15;;;;;;;6.15;3.72;;;21.80;99.90;;;;;;5014728;28;20037;-38
2023/06/21 11:08:06;;;;;;;6.20;3.90;;;21.90;99.90;;;;;;5014968;28;20436;-38
2023/06/21 11:10:43;;;;;;;4.88;3.60;;;21.90;99.90;;;;;;5014293;28;20037;-38
2023/06/21 11:13:10;;;;;;;5.55;3.47;;;21.80;99.90;;;;;;5014442;28;20496;-40
2023/06/21 11:15:41;;;;;;;4.47;3.80;;;21.80;99.90;;;;;;5013033;28;20579;-38
2023/06/21 11:18:09;;;;;;;6.18;3.60;;;21.80;99.90;;;;;;5014902;28;20380;-36
2023/06/21 11:21:04;;;;;;;5.07;3.70;;;21.80;99.90;;;;;;5014180;28;20436;-38
2023/06/21 11:23:29;;;;;;;5.68;3.88;;;21.80;99.90;;;;;;5012689;28;20053;-39
2023/06/21 11:26:14;;;;;;;8.90;3.22;;;21.90;99.90;;;;;;5013829;28;20048;-39
2023/06/21 11:28:49;;;;;;;6.47;3.55;;;21.90;99.90;;;;;;5014184;28;20022;-37
2023/06/21 11:31:16;;;;;;;4.90;3.28;;;21.90;99.90;;;;;;5013949;28;20030;-39
2023/06/21 11:34:24;;;;;;;5.55;4.13;;;21.90;99.90;;;;;;5013896;28;20073;-37
2023/06/21 11:36:50;;;;;;;5.15;3.70;;;21.90;99.90;;;;;;5010754;28;20493;-40
2023/06/21 11:39:15;;;;;;;4.05;3.63;;;21.90;99.90;;;;;;5013773;28;20049;-39
2023/06/21 11:41:44;;;;;;;6.00;3.60;;;21.90;99.90;;;;;;5013676;28;20083;-40
2023/06/21 11:44:28;;;;;;;6.88;3.55;;;21.90;99.90;;;;;;5013804;28;20076;-38
2023/06/21 11:47:04;;;;;;;4.18;3.58;;;21.90;99.90;;;;;;5013831;28;20311;-38
2023/06/21 11:49:33;;;;;;;7.00;3.10;;;21.90;99.90;;;;;;5013606;28;20034;-39
2023/06/21 11:52:05;;;;;;;5.75;3.03;;;21.90;99.90;;;;;;5013978;28;20026;-36
2023/06/21 11:54:36;;;;;;;4.00;3.35;;;21.90;99.90;;;;;;5013915;28;20063;-38
2023/06/21 11:57:05;;;;;;;4.40;3.10;;;21.90;99.90;;;;;;5013522;28;20056;-38
2023/06/21 11:59:32;;;;;;;5.13;3.10;;;22.00;99.90;;;;;;5013432;28;20033;-41
2023/06/21 12:02:14;;;;;;;6.20;3.15;;;22.00;99.90;;;;;;5013788;28;20034;-38
2023/06/21 12:04:41;;;;;;;4.82;3.40;;;22.00;99.90;;;;;;5028386;28;20025;-41
2023/06/21 12:07:09;;;;;;;4.00;3.45;;;22.00;99.90;;;;;;5013174;28;20040;-37
2023/06/21 12:09:35;;;;;;;5.57;3.60;;;22.00;99.90;;;;;;5013206;28;20044;-38
2023/06/21 12:12:00;;;;;;;5.20;3.28;;;22.00;99.90;;;;;;5013268;28;20029;-37
2023/06/21 12:14:26;;;;;;;3.50;3.20;;;22.00;99.90;;;;;;5013110;28;20112;-40
2023/06/21 12:16:52;;;;;;;4.25;3.35;;;22.00;99.90;;;;;;5013159;28;20026;-39
2023/06/21 12:19:21;;;;;;;4.82;3.25;;;22.00;99.90;;;;;;5012948;28;20072;-37
2023/06/21 12:21:48;;;;;;;3.58;3.13;;;22.00;99.90;;;;;;5013126;28;20068;-40
2023/06/21 12:24:14;;;;;;;3.33;3.03;;;22.00;99.90;;;;;;5013001;28;20025;-42
2023/06/21 12:26:48;;;;;;;4.00;3.40;;;22.00;99.90;;;;;;5012936;28;20030;-40
2023/06/21 12:29:13;;;;;;;;;;;22.00;99.90;;;;;;5013312;28;20018;-39
2023/06/21 12:31:43;;;;;;;5.22;3.13;;;22.00;99.90;;;;;;5012883;28;19942;-38
2023/06/21 12:34:16;;;;;;;3.70;3.05;;;22.00;99.90;;;;;;5011745;28;20018;-40
2023/06/21 12:36:46;;;;;;;5.83;3.33;;;22.00;99.90;;;;;;5012667;28;20062;-39
2023/06/21 12:39:14;;;;;;;3.92;3.30;;;22.00;99.90;;;;;;5012669;28;20265;-38
2023/06/21 12:41:41;;;;;;;3.95;3.10;;;22.00;99.90;;;;;;5012752;28;20033;-36
2023/06/21 12:44:31;;;;;;;5.93;3.42;;;22.00;99.90;;;;;;5012637;28;20037;-40
2023/06/21 12:46:57;;;;;;;3.38;2.90;;;22.00;99.90;;;;;;5012498;28;20026;-40
2023/06/21 12:49:22;;;;;;;4.57;3.17;;;22.00;99.90;;;;;;5012519;28;20033;-39